createdAt,value
2022-09-09T00:01:10.881Z,100.00
2022-09-09T00:06:23.693Z,100.00
2022-09-09T00:11:50.683Z,100.00
2022-09-09T00:17:04.341Z,100.00
2022-09-09T00:22:18.250Z,100.00
2022-09-09T00:27:32.811Z,100.00
2022-09-09T00:32:39.975Z,100.00
2022-09-09T00:37:47.101Z,100.00
2022-09-09T00:43:09.486Z,100.00
2022-09-09T00:48:17.988Z,100.00
2022-09-09T00:53:35.597Z,100.00
2022-09-09T00:58:39.844Z,100.00
2022-09-09T01:03:52.069Z,100.00
2022-09-09T01:09:21.826Z,100.00
2022-09-09T01:14:35.273Z,100.00
2022-09-09T01:19:54.002Z,100.00
2022-09-09T01:25:32.690Z,100.00
2022-09-09T01:30:43.367Z,100.00
2022-09-09T01:35:52.402Z,100.00
2022-09-09T01:40:57.148Z,100.00
2022-09-09T01:46:04.072Z,100.00
2022-09-09T01:51:08.713Z,100.00
2022-09-09T01:56:27.588Z,100.00
2022-09-09T02:01:45.889Z,100.00
2022-09-09T02:07:03.581Z,100.00
2022-09-09T02:12:17.231Z,100.00
2022-09-09T02:17:29.185Z,100.00
2022-09-09T02:22:37.473Z,100.00
2022-09-09T02:27:59.849Z,100.00
2022-09-09T02:33:20.101Z,100.00
2022-09-09T02:38:32.909Z,100.00
2022-09-09T02:43:38.318Z,100.00
2022-09-09T02:48:51.029Z,100.00
2022-09-09T02:54:13.595Z,100.00
2022-09-09T02:59:17.879Z,100.00
2022-09-09T03:04:23.328Z,100.00
2022-09-09T03:09:27.585Z,100.00
2022-09-09T03:14:41.530Z,100.00
2022-09-09T03:19:50.734Z,100.00
2022-09-09T03:24:56.756Z,100.00
2022-09-09T03:30:06.574Z,100.00
2022-09-09T03:35:31.843Z,100.00
2022-09-09T03:40:38.328Z,100.00
2022-09-09T03:45:42.802Z,100.00
2022-09-09T03:50:54.323Z,100.00
2022-09-09T03:56:03.573Z,100.00
2022-09-09T04:01:11.964Z,100.00
2022-09-09T04:06:32.664Z,100.00
2022-09-09T04:11:41.124Z,100.00
2022-09-09T04:16:48.850Z,100.00
2022-09-09T04:22:06.007Z,100.00
2022-09-09T04:27:12.408Z,100.00
2022-09-09T04:32:28.318Z,100.00
2022-09-09T04:37:36.921Z,100.00
2022-09-09T04:42:58.018Z,100.00
2022-09-09T04:48:06.291Z,100.00
2022-09-09T04:53:18.588Z,100.00
2022-09-09T04:58:27.501Z,100.00
2022-09-09T05:03:31.327Z,100.00
2022-09-09T05:08:36.852Z,100.00
2022-09-09T05:13:43.886Z,100.00
2022-09-09T05:18:48.235Z,100.00
2022-09-09T05:23:53.099Z,99.68
2022-09-09T05:28:56.447Z,99.63
2022-09-09T05:34:00.313Z,99.55
2022-09-09T05:39:21.623Z,99.19
2022-09-09T05:44:29.643Z,98.22
2022-09-09T05:49:35.977Z,97.56
2022-09-09T05:54:41.312Z,97.84
2022-09-09T05:59:44.842Z,96.54
2022-09-09T06:04:48.093Z,95.59
2022-09-09T06:09:56.058Z,95.44
2022-09-09T06:15:15.376Z,93.96
2022-09-09T06:20:23.310Z,93.16
2022-09-09T06:25:33.108Z,92.70
2022-09-09T06:30:39.698Z,92.45
2022-09-09T06:35:44.589Z,92.22
2022-09-09T06:40:58.938Z,90.80
2022-09-09T06:46:05.043Z,90.11
2022-09-09T06:51:13.094Z,89.38
2022-09-09T06:56:25.096Z,88.75
2022-09-09T07:01:37.952Z,88.41
2022-09-09T07:06:47.503Z,86.35
2022-09-09T07:11:54.602Z,82.07
2022-09-09T07:17:00.008Z,82.61
2022-09-09T07:22:04.670Z,79.12
2022-09-09T07:27:10.234Z,76.30
2022-09-09T07:32:15.643Z,76.83
2022-09-09T07:37:19.065Z,72.41
2022-09-09T07:42:39.484Z,68.60
2022-09-09T07:47:45.232Z,67.18
2022-09-09T07:52:49.039Z,66.22
2022-09-09T07:57:55.952Z,66.15
2022-09-09T08:03:02.208Z,65.00
2022-09-09T08:08:09.418Z,66.13
2022-09-09T08:13:21.140Z,66.24
2022-09-09T08:18:31.570Z,65.33
2022-09-09T08:23:37.720Z,64.38
2022-09-09T08:28:45.579Z,64.91
2022-09-09T08:33:53.113Z,64.72
2022-09-09T08:38:58.856Z,63.94
2022-09-09T08:44:11.690Z,63.84
2022-09-09T08:49:35.719Z,62.03
2022-09-09T08:54:52.264Z,63.04
2022-09-09T09:00:01.764Z,63.49
2022-09-09T09:05:21.812Z,62.90
2022-09-09T09:10:42.787Z,63.19
2022-09-09T09:16:02.218Z,62.68
2022-09-09T09:21:18.242Z,62.14
2022-09-09T09:26:24.701Z,61.67
2022-09-09T09:31:39.191Z,61.19
2022-09-09T09:36:47.824Z,60.86
2022-09-09T09:41:51.717Z,59.18
2022-09-09T09:47:09.829Z,59.35
2022-09-09T09:52:20.025Z,60.11
2022-09-09T09:57:30.392Z,60.16
2022-09-09T10:03:02.224Z,60.26
2022-09-09T10:08:07.790Z,60.46
2022-09-09T10:13:20.114Z,60.94
2022-09-09T10:18:43.579Z,59.08
2022-09-09T10:24:14.186Z,59.03
2022-09-09T10:29:33.266Z,59.12
2022-09-09T10:34:54.512Z,59.30
2022-09-09T10:40:06.812Z,60.20
2022-09-09T10:45:21.949Z,60.40
2022-09-09T10:51:04.575Z,59.64
2022-09-09T10:56:13.794Z,59.00
2022-09-09T11:01:21.610Z,59.45
2022-09-09T11:06:32.317Z,59.15
2022-09-09T11:11:39.588Z,58.36
2022-09-09T11:16:49.842Z,58.67
2022-09-09T11:21:59.082Z,56.92
2022-09-09T11:27:13.218Z,58.28
2022-09-09T11:32:51.609Z,56.57
2022-09-09T11:38:19.138Z,55.31
2022-09-09T11:43:31.496Z,54.29
2022-09-09T11:48:38.011Z,54.50
2022-09-09T11:54:06.374Z,54.09
2022-09-09T11:59:24.147Z,53.95
2022-09-09T12:04:37.872Z,52.99
2022-09-09T12:09:53.008Z,52.36
2022-09-09T12:15:03.658Z,52.62
2022-09-09T12:20:15.763Z,52.95
2022-09-09T12:25:28.913Z,53.04
2022-09-09T12:30:38.286Z,53.02
2022-09-09T12:35:45.685Z,52.75
2022-09-09T12:40:58.470Z,52.64
2022-09-09T12:46:05.366Z,52.00
2022-09-09T12:51:21.906Z,51.41
2022-09-09T12:56:31.204Z,51.76
2022-09-09T13:01:40.142Z,52.30
2022-09-09T13:06:43.445Z,51.17
2022-09-09T13:11:52.892Z,50.74
2022-09-09T13:17:01.924Z,51.83
2022-09-09T13:22:16.905Z,51.34
2022-09-09T13:27:31.723Z,51.98
2022-09-09T13:32:38.481Z,51.46
2022-09-09T13:37:42.548Z,51.06
2022-09-09T13:42:47.624Z,51.68
2022-09-09T13:47:53.887Z,51.95
2022-09-09T13:52:59.002Z,52.61
2022-09-09T13:58:06.838Z,53.17
2022-09-09T14:03:11.186Z,53.91
2022-09-09T14:08:23.813Z,51.94
2022-09-09T14:13:29.179Z,48.97
2022-09-09T14:18:33.557Z,48.94
2022-09-09T14:23:36.903Z,49.16
2022-09-09T14:28:57.653Z,49.10
2022-09-09T14:34:01.274Z,49.86
2022-09-09T14:39:05.167Z,49.77
2022-09-09T14:44:12.799Z,50.71
2022-09-09T14:49:16.657Z,51.63
2022-09-09T14:54:24.021Z,51.99
2022-09-09T14:59:29.092Z,51.80
2022-09-09T15:04:33.700Z,52.51
2022-09-09T15:09:38.910Z,53.68
2022-09-09T15:14:43.804Z,52.15
2022-09-09T15:19:48.403Z,53.02
2022-09-09T15:24:53.700Z,52.68
2022-09-09T15:29:59.330Z,53.04
2022-09-09T15:35:02.602Z,52.97
2022-09-09T15:40:07.914Z,53.64
2022-09-09T15:45:14.207Z,53.12
2022-09-09T15:50:17.819Z,52.39
2022-09-09T15:55:21.703Z,53.02
2022-09-09T16:00:27.500Z,52.45
2022-09-09T16:05:30.549Z,52.77
2022-09-09T16:10:35.901Z,53.33
2022-09-09T16:15:41.154Z,53.81
2022-09-09T16:20:44.951Z,53.71
2022-09-09T16:25:56.515Z,54.04
2022-09-09T16:31:07.875Z,53.92
2022-09-09T16:36:14.988Z,54.40
2022-09-09T16:41:18.400Z,55.04
2022-09-09T16:46:25.563Z,56.40
2022-09-09T16:51:31.064Z,56.24
2022-09-09T16:56:37.476Z,56.28
2022-09-09T17:01:44.334Z,56.70
2022-09-09T17:06:49.475Z,57.26
2022-09-09T17:11:54.351Z,57.38
2022-09-09T17:17:14.059Z,57.69
2022-09-09T17:22:27.652Z,57.89
2022-09-09T17:27:32.488Z,58.80
2022-09-09T17:32:37.553Z,58.80
2022-09-09T17:37:41.965Z,58.46
2022-09-09T17:42:46.482Z,58.02
2022-09-09T17:52:55.056Z,57.08
2022-09-09T17:58:00.202Z,57.02
2022-09-09T18:03:05.159Z,57.25
2022-09-09T18:08:08.777Z,57.22
2022-09-09T18:13:12.914Z,57.57
2022-09-09T18:18:18.464Z,57.76
2022-09-09T18:23:22.251Z,58.54
2022-09-09T18:28:26.657Z,59.13
2022-09-09T18:33:38.031Z,60.38
2022-09-09T18:38:44.226Z,60.84
2022-09-09T18:43:48.548Z,62.24
2022-09-09T18:48:57.097Z,63.79
2022-09-09T18:54:04.319Z,64.83
2022-09-09T18:59:10.389Z,65.83
2022-09-09T19:04:16.642Z,67.03
2022-09-09T19:09:20.671Z,67.93
2022-09-09T19:14:28.591Z,68.55
2022-09-09T19:19:37.269Z,70.02
2022-09-09T19:24:40.886Z,70.48
2022-09-09T19:29:47.393Z,71.24
2022-09-09T19:34:52.389Z,71.51
2022-09-09T19:39:58.888Z,71.76
2022-09-09T19:45:03.799Z,72.16
2022-09-09T19:50:10.148Z,72.85
2022-09-09T19:55:19.435Z,73.15
2022-09-09T20:00:23.254Z,73.64
2022-09-09T20:05:28.032Z,73.80
2022-09-09T20:10:32.137Z,74.39
2022-09-09T20:15:38.094Z,75.05
2022-09-09T20:20:44.230Z,75.79
2022-09-09T20:25:49.921Z,76.33
2022-09-09T20:30:54.960Z,76.68
2022-09-09T20:36:05.309Z,77.27
2022-09-09T20:41:14.489Z,77.37
2022-09-09T20:46:19.442Z,77.32
2022-09-09T20:51:28.100Z,78.05
2022-09-09T20:56:34.018Z,78.32
2022-09-09T21:01:37.424Z,78.35
2022-09-09T21:06:42.399Z,78.61
2022-09-09T21:11:47.846Z,79.15
2022-09-09T21:16:51.315Z,79.33
2022-09-09T21:21:57.299Z,79.80
2022-09-09T21:27:00.849Z,80.33
2022-09-09T21:32:04.566Z,80.43
2022-09-09T21:37:10.478Z,81.14
2022-09-09T21:42:15.471Z,81.33
2022-09-09T21:47:18.993Z,81.61
2022-09-09T21:52:29.238Z,82.13
2022-09-09T21:57:32.321Z,82.46
2022-09-09T22:02:38.311Z,83.35
2022-09-09T22:07:44.616Z,84.10
2022-09-09T22:12:49.233Z,84.51
2022-09-09T22:17:53.394Z,85.07
2022-09-09T22:22:58.212Z,85.83
2022-09-09T22:28:03.705Z,86.48
2022-09-09T22:33:07.247Z,86.71
2022-09-09T22:38:14.214Z,86.86
2022-09-09T22:43:21.213Z,87.33
2022-09-09T22:48:24.671Z,87.57
2022-09-09T22:53:31.863Z,87.62
2022-09-09T22:58:39.025Z,88.29
2022-09-09T23:03:43.873Z,88.51
2022-09-09T23:08:50.303Z,88.84
2022-09-09T23:13:56.222Z,88.62
2022-09-09T23:19:00.924Z,88.75
2022-09-09T23:24:08.652Z,88.88
2022-09-09T23:29:15.430Z,88.94
2022-09-09T23:34:19.472Z,89.42
2022-09-09T23:39:24.325Z,89.75
2022-09-09T23:44:28.008Z,89.77
2022-09-09T23:49:32.067Z,89.91
2022-09-09T23:54:37.539Z,90.48
2022-09-09T23:59:41.650Z,90.48
